Time;durP1;ratioP1;P1;durP2;ratioP2;P2;SDS_P1;SDS_P2;PMS_P1;PMS_P2;Temp;Humidity;BMP_temperature;BMP_pressure;BME280_temperature;BME280_humidity;BME280_pressure;Samples;Min_cycle;Max_cycle;Signal;HPM_P1;HPM_P2
2022/12/26 00:01:43;;;;;;;17.90;11.52;;;;;;;9.51;100.00;100951.25;4986381;28;20077;-65
2022/12/26 00:04:10;;;;;;;23.58;12.52;;;;;;;9.40;100.00;100948.75;4984254;28;20061;-66
2022/12/26 00:06:57;;;;;;;22.38;12.63;;;;;;;9.41;100.00;100950.41;4989745;28;20152;-65
2022/12/26 00:09:23;;;;;;;23.70;13.38;;;;;;;9.43;100.00;100951.13;4981283;28;20054;-66
2022/12/26 00:11:50;;;;;;;26.08;14.00;;;;;;;9.40;100.00;100949.56;4982568;28;20050;-66
2022/12/26 00:14:16;;;;;;;27.52;14.18;;;;;;;9.42;100.00;100954.69;4976741;28;20054;-67
2022/12/26 00:16:44;;;;;;;29.75;15.15;;;;;;;9.42;100.00;100958.13;4980360;28;20502;-65
2022/12/26 00:19:11;;;;;;;27.98;14.95;;;;;;;9.43;100.00;100954.56;4979893;28;20053;-65
2022/12/26 00:21:39;;;;;;;32.25;14.95;;;;;;;9.42;100.00;100962.53;4984967;28;20145;-66
2022/12/26 00:24:08;;;;;;;25.92;14.82;;;;;;;9.43;100.00;100954.56;4986158;28;20137;-66
2022/12/26 00:26:35;;;;;;;27.67;15.00;;;;;;;9.40;100.00;100951.38;4974918;28;20050;-67
2022/12/26 00:29:01;;;;;;;27.30;14.18;;;;;;;9.35;100.00;100949.19;4987272;28;20065;-65
2022/12/26 00:31:31;;;;;;;32.42;14.38;;;;;;;9.42;100.00;100949.44;4981892;28;20046;-65
2022/12/26 00:33:58;;;;;;;28.27;15.02;;;;;;;9.41;100.00;100953.00;4986019;28;20058;-66
2022/12/26 00:36:28;;;;;;;28.95;15.68;;;;;;;9.43;100.00;100961.59;4984288;28;20104;-67
2022/12/26 00:38:56;;;;;;;28.65;15.48;;;;;;;9.42;100.00;100952.88;4984354;28;20062;-68
2022/12/26 00:41:24;;;;;;;28.75;14.93;;;;;;;9.42;100.00;100962.53;4988387;28;20054;-64
2022/12/26 00:43:50;;;;;;;30.38;16.20;;;;;;;9.40;100.00;100967.09;4976343;28;20167;-65
2022/12/26 00:46:17;;;;;;;30.60;15.63;;;;;;;9.41;100.00;100971.34;4997709;28;20046;-66
2022/12/26 00:48:44;;;;;;;28.02;14.98;;;;;;;9.40;100.00;100977.56;4980156;28;20495;-67
2022/12/26 00:51:11;;;;;;;29.80;15.65;;;;;;;9.36;100.00;100976.19;4985538;28;20512;-66
2022/12/26 00:53:38;;;;;;;29.38;15.30;;;;;;;9.40;100.00;100978.38;4982624;28;20151;-67
2022/12/26 00:56:05;;;;;;;30.50;15.68;;;;;;;9.40;100.00;100969.72;4975455;28;20050;-66
2022/12/26 00:58:31;;;;;;;33.08;17.13;;;;;;;9.35;100.00;100967.50;4987993;28;20038;-65
2022/12/26 01:01:16;;;;;;;32.42;17.35;;;;;;;9.40;100.00;100981.00;4984928;28;20046;-65
2022/12/26 01:03:44;;;;;;;34.38;17.58;;;;;;;9.35;100.00;100982.34;4983986;28;20062;-66
2022/12/26 01:06:11;;;;;;;35.78;17.98;;;;;;;9.34;100.00;101001.66;4983952;28;20061;-66
2022/12/26 01:08:37;;;;;;;33.35;15.93;;;;;;;9.34;100.00;100996.44;4962451;28;20052;-65
2022/12/26 01:11:08;;;;;;;34.63;16.67;;;;;;;9.41;100.00;101002.75;4977831;28;20988;-65
2022/12/26 01:13:35;;;;;;;40.25;18.48;;;;;;;9.35;100.00;101000.69;4979430;28;20057;-67
2022/12/26 01:16:02;;;;;;;32.95;17.05;;;;;;;9.34;100.00;100999.03;4978126;28;20103;-65
2022/12/26 01:18:28;;;;;;;34.97;17.60;;;;;;;9.37;100.00;100996.13;4974429;28;20492;-66
2022/12/26 01:21:04;;;;;;;31.50;16.52;;;;;;;9.37;100.00;100990.91;4986256;28;20057;-66
2022/12/26 01:23:31;;;;;;;31.98;16.77;;;;;;;9.32;100.00;101000.97;4975308;28;20707;-65
2022/12/26 01:25:57;;;;;;;29.50;16.17;;;;;;;9.34;100.00;101007.72;4982327;28;20042;-68
2022/12/26 01:28:44;;;;;;;30.48;16.35;;;;;;;9.35;100.00;101004.16;4975618;28;20046;-66
2022/12/26 01:31:10;;;;;;;28.85;16.20;;;;;;;9.36;100.00;101013.66;4962159;28;20499;-66
2022/12/26 01:33:37;;;;;;;30.02;15.40;;;;;;;9.30;100.00;101015.00;4989849;28;20046;-64
2022/12/26 01:36:04;;;;;;;27.08;16.23;;;;;;;9.30;100.00;101003.72;4981353;28;20121;-64
2022/12/26 01:38:30;;;;;;;26.63;15.13;;;;;;;9.36;100.00;100999.72;4979262;28;20060;-65
2022/12/26 01:43:56;;;;;;;26.05;15.25;;;;;;;9.32;100.00;100988.69;4977632;28;20058;-64
2022/12/26 01:46:40;;;;;;;26.10;15.40;;;;;;;9.36;100.00;100997.13;4971093;28;20776;-63
2022/12/26 01:49:19;;;;;;;25.83;14.73;;;;;;;9.33;100.00;100990.38;4983874;28;20840;-64
2022/12/26 01:51:52;;;;;;;23.60;13.82;;;;;;;9.36;100.00;100982.22;4993490;28;20069;-66
2022/12/26 01:54:20;;;;;;;24.58;14.68;;;;;;;9.33;100.00;100986.91;4977610;28;20050;-64
2022/12/26 01:57:15;;;;;;;28.30;15.38;;;;;;;9.36;100.00;100994.50;4987090;28;20046;-64
2022/12/26 01:59:44;;;;;;;24.73;14.00;;;;;;;9.36;100.00;100984.84;4979081;28;20058;-65
2022/12/26 02:02:10;;;;;;;25.30;14.80;;;;;;;9.32;100.00;100991.31;5002585;28;20078;-66
2022/12/26 02:07:28;;;;;;;25.13;14.80;;;;;;;9.34;100.00;100994.63;4987853;28;20612;-66
2022/12/26 02:09:54;;;;;;;26.42;15.60;;;;;;;9.32;100.00;100996.56;4989019;28;20081;-67
2022/12/26 02:12:28;;;;;;;26.75;14.93;;;;;;;9.36;100.00;101008.41;4986898;28;20064;-67
2022/12/26 02:15:07;;;;;;;26.92;16.23;;;;;;;9.35;100.00;101005.91;4994087;28;20085;-67
2022/12/26 02:17:34;;;;;;;26.33;15.88;;;;;;;9.33;100.00;100995.59;4983330;28;20050;-67
2022/12/26 02:20:20;;;;;;;29.67;18.15;;;;;;;9.33;100.00;100993.00;4983733;28;20766;-66
2022/12/26 02:23:18;;;;;;;29.05;16.20;;;;;;;9.37;100.00;100998.75;4979755;28;20062;-67
2022/12/26 02:26:06;;;;;;;33.20;18.40;;;;;;;9.32;100.00;100996.56;4994778;28;20803;-68
2022/12/26 02:28:59;;;;;;;28.98;17.52;;;;;;;9.26;100.00;101004.94;4980492;28;20047;-70
2022/12/26 02:31:44;;;;;;;29.92;17.83;;;;;;;9.19;100.00;101009.91;4992516;28;20057;-70
2022/12/26 02:34:15;;;;;;;32.30;18.92;;;;;;;9.17;100.00;101003.13;4986647;28;20398;-70
2022/12/26 02:37:22;;;;;;;31.75;18.02;;;;;;;9.21;100.00;101002.75;4985373;28;20053;-70
2022/12/26 02:40:16;;;;;;;30.55;18.00;;;;;;;9.20;100.00;101000.25;4965677;28;20061;-70
2022/12/26 02:43:10;;;;;;;30.58;18.10;;;;;;;9.20;100.00;101000.25;4987805;28;20050;-69
2022/12/26 02:48:44;;;;;;;29.42;18.30;;;;;;;9.19;100.00;101007.28;4989578;28;20074;-68
2022/12/26 03:14:22;;;;;;;26.83;16.83;;;;;;;9.15;100.00;101005.84;4984883;28;20601;-69
2022/12/26 03:19:57;;;;;;;27.00;17.60;;;;;;;9.13;100.00;101010.41;4983513;28;20419;-70
2022/12/26 03:22:45;;;;;;;28.55;17.50;;;;;;;9.15;100.00;101010.28;4981181;28;20042;-69
2022/12/26 03:28:02;;;;;;;28.45;17.33;;;;;;;9.07;100.00;101003.91;4979041;28;19930;-70
2022/12/26 03:34:15;;;;;;;26.35;17.60;;;;;;;9.00;100.00;100997.56;4977173;28;20141;-70
2022/12/26 03:36:10;;;;;;;30.90;19.10;;;;;;;8.98;100.00;100996.03;4983323;28;20050;-70
2022/12/26 03:38:50;;;;;;;28.90;17.52;;;;;;;8.93;100.00;100996.41;4988096;28;20065;-69
2022/12/26 04:19:27;;;;;;;35.15;22.73;;;;;;;9.17;100.00;101037.97;4972365;28;20088;-66
2022/12/26 04:44:34;;;;;;;28.10;18.50;;;;;;;9.13;100.00;101043.59;4979060;28;20058;-66
2022/12/26 04:47:00;;;;;;;29.95;20.75;;;;;;;9.10;100.00;101053.38;4985163;28;20050;-68
2022/12/26 04:52:13;;;;;;;24.35;17.83;;;;;;;9.13;100.00;101039.19;4983255;28;20061;-67
2022/12/26 04:54:41;;;;;;;23.55;16.45;;;;;;;9.12;100.00;101036.72;4979225;28;20450;-65
2022/12/26 04:57:07;;;;;;;23.70;18.10;;;;;;;9.13;100.00;101040.97;4994861;28;20475;-65
2022/12/26 04:59:34;;;;;;;21.30;16.15;;;;;;;9.14;100.00;101038.25;4987377;28;20327;-67
2022/12/26 05:10:25;;;;;;;24.92;16.88;;;;;;;9.00;100.00;101008.03;4979606;28;20050;-65
2022/12/26 05:12:52;;;;;;;21.60;16.00;;;;;;;8.98;100.00;101004.72;4975058;28;20467;-67
2022/12/26 05:15:19;;;;;;;18.75;14.45;;;;;;;8.95;100.00;101007.56;4986109;28;20057;-66
2022/12/26 05:29:02;;;;;;;17.80;12.60;;;;;;;8.93;100.00;101013.91;4986365;28;20050;-65
2022/12/26 05:31:29;;;;;;;17.77;12.32;;;;;;;8.91;100.00;101016.66;4984581;28;20497;-65
2022/12/26 05:34:04;;;;;;;16.23;11.60;;;;;;;8.87;100.00;101015.25;4964679;28;20517;-67
2022/12/26 05:36:42;;;;;;;15.13;11.40;;;;;;;8.91;100.00;101016.66;4972216;28;20125;-65
2022/12/26 05:39:09;;;;;;;13.50;10.23;;;;;;;8.86;100.00;101017.06;4987335;28;20050;-66
2022/12/26 05:41:37;;;;;;;15.13;11.25;;;;;;;8.84;100.00;101021.59;4983400;28;20050;-66
2022/12/26 05:44:04;;;;;;;12.47;9.47;;;;;;;8.83;100.00;101021.72;4995971;28;20515;-65
2022/12/26 05:46:31;;;;;;;12.68;9.23;;;;;;;8.81;100.00;101027.06;4990539;28;20483;-65
2022/12/26 05:48:57;;;;;;;14.48;9.25;;;;;;;8.79;100.00;101018.53;4985691;28;20069;-66
2022/12/26 05:51:24;;;;;;;9.75;7.38;;;;;;;8.78;100.00;101024.72;4989618;28;20054;-65
2022/12/26 05:53:51;;;;;;;10.75;6.78;;;;;;;8.80;100.00;101017.56;4985000;28;20046;-65
2022/12/26 05:56:18;;;;;;;10.00;6.50;;;;;;;8.77;100.00;101019.63;4989545;28;20498;-66
2022/12/26 05:58:45;;;;;;;9.02;6.15;;;;;;;8.75;100.00;101011.91;4979541;28;20848;-68
2022/12/26 06:01:16;;;;;;;9.30;5.63;;;;;;;8.78;100.00;101003.81;4989266;28;20463;-66
2022/12/26 06:03:47;;;;;;;9.07;6.10;;;;;;;8.81;100.00;100998.28;4984389;28;20183;-65
2022/12/26 06:06:15;;;;;;;9.10;6.25;;;;;;;8.79;100.00;100989.75;4991632;28;20054;-67
2022/12/26 06:08:42;;;;;;;9.95;5.53;;;;;;;8.75;100.00;100979.69;4987951;28;20050;-65
2022/12/26 06:11:11;;;;;;;6.63;5.22;;;;;;;8.78;100.00;100980.25;4985006;28;20050;-65
2022/12/26 06:13:39;;;;;;;8.35;5.35;;;;;;;8.75;100.00;100983.13;4989838;28;20125;-66
2022/12/26 06:16:08;;;;;;;7.53;5.90;;;;;;;8.75;100.00;100985.75;4983256;28;20083;-67
2022/12/26 06:18:35;;;;;;;9.18;5.85;;;;;;;8.73;100.00;100992.88;4981300;28;20054;-65
2022/12/26 06:21:07;;;;;;;7.85;5.40;;;;;;;8.75;100.00;100998.81;4987451;28;20077;-68
2022/12/26 06:23:35;;;;;;;8.95;5.05;;;;;;;8.72;100.00;101004.28;4991287;28;20053;-65
2022/12/26 06:26:02;;;;;;;8.95;5.28;;;;;;;8.70;100.00;100987.91;4993330;28;20054;-65
2022/12/26 06:28:29;;;;;;;7.18;5.18;;;;;;;8.69;100.00;100994.94;4980147;28;20042;-65
2022/12/26 06:31:07;;;;;;;7.55;5.30;;;;;;;8.68;100.00;100988.06;4984404;28;20050;-65
2022/12/26 06:33:34;;;;;;;11.35;5.65;;;;;;;8.67;100.00;100996.84;4986018;28;20057;-66
2022/12/26 06:36:04;;;;;;;8.77;4.63;;;;;;;8.67;100.00;100996.03;4993050;28;20054;-66
2022/12/26 06:38:31;;;;;;;8.93;5.90;;;;;;;8.64;100.00;100998.88;4991948;28;20678;-66
2022/12/26 06:40:57;;;;;;;9.52;5.55;;;;;;;8.60;100.00;101011.38;4983834;28;20050;-66
2022/12/26 06:43:24;;;;;;;9.45;5.63;;;;;;;8.60;100.00;101010.56;4958701;28;20054;-66
2022/12/26 06:45:57;;;;;;;10.15;5.60;;;;;;;8.65;100.00;101011.03;4986275;28;20057;-66
2022/12/26 06:48:24;;;;;;;7.88;4.75;;;;;;;8.64;100.00;101025.84;4995974;28;20060;-66
2022/12/26 06:50:53;;;;;;;9.23;5.68;;;;;;;8.60;100.00;101026.25;4986263;28;20104;-66
2022/12/26 06:53:21;;;;;;;7.28;5.30;;;;;;;8.55;100.00;101029.25;4995391;28;20049;-65
2022/12/26 06:55:48;;;;;;;9.30;6.07;;;;;;;8.55;100.00;101037.13;4987818;28;20522;-65
2022/12/26 06:58:15;;;;;;;9.55;6.07;;;;;;;8.55;100.00;101038.91;4974626;28;20379;-67
2022/12/26 07:00:42;;;;;;;8.75;6.38;;;;;;;8.52;100.00;101047.81;4983383;28;20050;-65
2022/12/26 07:03:09;;;;;;;9.77;6.00;;;;;;;8.51;100.00;101044.38;4974389;28;20058;-65
2022/12/26 07:05:37;;;;;;;10.00;5.88;;;;;;;8.52;100.00;101042.59;4990082;28;20057;-67
2022/12/26 07:08:03;;;;;;;12.13;7.72;;;;;;;8.50;100.00;101042.69;4982628;28;20050;-65
2022/12/26 07:10:34;;;;;;;9.38;6.53;;;;;;;8.52;100.00;101045.19;4953432;28;20137;-66
2022/12/26 07:13:01;;;;;;;12.70;6.80;;;;;;;8.48;100.00;101042.00;4986387;28;20047;-65
2022/12/26 07:15:27;;;;;;;11.18;6.18;;;;;;;8.47;100.00;101047.38;4980214;28;20559;-66
2022/12/26 07:17:54;;;;;;;10.55;7.22;;;;;;;8.45;100.00;101047.50;4987327;28;20046;-65
2022/12/26 07:20:20;;;;;;;12.10;7.13;;;;;;;8.43;100.00;101044.19;4977736;28;20133;-65
2022/12/26 07:22:47;;;;;;;10.02;7.85;;;;;;;8.40;100.00;101049.63;4997075;28;20061;-65
2022/12/26 07:25:13;;;;;;;10.73;7.60;;;;;;;8.40;100.00;101046.19;4989983;28;20169;-65
2022/12/26 07:27:40;;;;;;;12.02;7.30;;;;;;;8.40;100.00;101057.47;4977036;28;20101;-67
2022/12/26 07:30:07;;;;;;;10.65;7.00;;;;;;;8.43;100.00;101064.28;4982562;28;20061;-66
2022/12/26 07:32:33;;;;;;;9.20;6.43;;;;;;;8.40;100.00;101056.66;4981631;28;20055;-65
2022/12/26 07:34:59;;;;;;;9.32;5.70;;;;;;;8.44;100.00;101065.91;4985671;28;20626;-65
2022/12/26 07:37:26;;;;;;;11.48;7.45;;;;;;;8.40;100.00;101060.06;4981650;28;20046;-66
2022/12/26 07:39:52;;;;;;;12.32;7.60;;;;;;;8.41;100.00;101061.78;4978510;28;20061;-65
2022/12/26 07:42:25;;;;;;;9.50;6.68;;;;;;;8.44;100.00;101058.09;4983321;28;20495;-65
2022/12/26 07:44:51;;;;;;;10.38;6.82;;;;;;;8.41;100.00;101067.00;4972254;28;20054;-65
2022/12/26 07:47:18;;;;;;;10.40;6.35;;;;;;;8.42;100.00;101054.75;4990681;28;20714;-67
2022/12/26 07:49:44;;;;;;;10.65;6.75;;;;;;;8.43;100.00;101045.97;4980207;28;20058;-67
2022/12/26 07:52:10;;;;;;;9.07;6.28;;;;;;;8.43;100.00;101040.75;4995424;28;20054;-65
2022/12/26 07:54:37;;;;;;;8.07;5.93;;;;;;;8.44;100.00;101045.81;4983185;28;20051;-65
2022/12/26 07:57:03;;;;;;;12.60;6.50;;;;;;;8.45;100.00;101039.66;4977207;28;20146;-66
2022/12/26 07:59:50;;;;;;;8.65;5.85;;;;;;;8.43;100.00;101044.19;4981616;28;20049;-64
2022/12/26 08:02:19;;;;;;;8.07;5.10;;;;;;;8.47;100.00;101037.75;4980870;28;20053;-65
2022/12/26 08:04:45;;;;;;;10.13;6.20;;;;;;;8.45;100.00;101038.84;4989040;28;20062;-65
2022/12/26 08:07:12;;;;;;;10.07;5.45;;;;;;;8.46;100.00;101049.16;4978544;28;20463;-66
2022/12/26 08:09:41;;;;;;;7.47;5.47;;;;;;;8.49;100.00;101046.28;4987037;28;20046;-66
2022/12/26 08:12:08;;;;;;;5.63;4.43;;;;;;;8.49;100.00;101056.75;4976415;28;20312;-66
2022/12/26 08:14:36;;;;;;;6.60;4.80;;;;;;;8.55;100.00;101058.03;4985592;28;20058;-66
2022/12/26 08:17:03;;;;;;;8.68;4.97;;;;;;;8.54;100.00;101053.75;4987379;28;20068;-65
2022/12/26 08:19:29;;;;;;;11.02;5.05;;;;;;;8.54;100.00;101061.59;4980533;28;20102;-65
2022/12/26 08:21:56;;;;;;;8.05;4.50;;;;;;;8.59;100.00;101050.75;4970413;28;20470;-65
2022/12/26 08:24:23;;;;;;;8.07;4.50;;;;;;;8.62;100.00;101053.09;4980646;28;20049;-64
2022/12/26 08:26:49;;;;;;;6.68;4.03;;;;;;;8.62;100.00;101064.38;4983174;28;20101;-65
2022/12/26 08:29:15;;;;;;;6.20;3.90;;;;;;;8.65;100.00;101058.91;4971504;28;20195;-67
2022/12/26 08:31:42;;;;;;;10.73;4.00;;;;;;;8.69;100.00;101062.94;4961591;28;20058;-65
2022/12/26 08:34:08;;;;;;;6.95;4.05;;;;;;;8.71;100.00;101063.63;4992178;28;20644;-66
2022/12/26 08:36:35;;;;;;;7.45;4.00;;;;;;;8.77;100.00;101062.28;4980650;28;20061;-65
2022/12/26 08:39:01;;;;;;;7.45;3.83;;;;;;;8.78;100.00;101056.13;4976579;28;20192;-66
2022/12/26 08:41:28;;;;;;;5.30;3.35;;;;;;;8.79;100.00;101070.00;4977169;28;20112;-65
2022/12/26 08:43:54;;;;;;;5.80;3.78;;;;;;;8.81;100.00;101052.41;4990954;28;20490;-64
2022/12/26 08:46:40;;;;;;;5.90;3.35;;;;;;;8.82;100.00;101046.19;4994859;28;20457;-65
2022/12/26 08:49:07;;;;;;;6.57;3.88;;;;;;;8.86;100.00;101042.34;4977895;28;20609;-67
2022/12/26 08:51:33;;;;;;;8.07;3.78;;;;;;;8.85;100.00;101051.19;4983896;28;20058;-67
2022/12/26 08:54:00;;;;;;;6.55;3.22;;;;;;;8.82;100.00;101059.28;4973258;28;20799;-67
2022/12/26 08:56:27;;;;;;;7.38;3.03;;;;;;;8.87;100.00;101049.25;4975285;28;20541;-65
2022/12/26 08:58:54;;;;;;;5.65;2.83;;;;;;;8.87;100.00;101049.25;4980938;28;20491;-65
2022/12/26 09:01:23;;;;;;;7.78;3.33;;;;;;;8.94;100.00;101068.72;4987068;28;20418;-66
2022/12/26 09:04:08;;;;;;;7.72;3.72;;;;;;;9.02;100.00;101062.84;4984295;28;20562;-65
2022/12/26 09:06:37;;;;;;;6.63;2.63;;;;;;;9.04;100.00;101061.75;4980386;28;20057;-65
2022/12/26 09:09:05;;;;;;;8.50;2.95;;;;;;;9.07;100.00;101076.34;4987788;28;20062;-66
2022/12/26 09:11:32;;;;;;;8.77;2.92;;;;;;;9.11;100.00;101075.13;4985160;28;20546;-65
2022/12/26 09:14:00;;;;;;;5.75;2.80;;;;;;;9.15;100.00;101078.31;4990122;28;20046;-65
2022/12/26 09:16:29;;;;;;;8.02;2.75;;;;;;;9.21;100.00;101077.78;4988085;28;20057;-67
2022/12/26 09:19:05;;;;;;;6.32;2.83;;;;;;;9.25;100.00;101072.19;4988286;28;20587;-66
2022/12/26 09:21:32;;;;;;;7.15;2.83;;;;;;;9.31;100.00;101073.44;4984023;28;20141;-66
2022/12/26 09:24:01;;;;;;;5.10;2.60;;;;;;;9.37;100.00;101083.38;4992977;28;20142;-66
2022/12/26 09:26:28;;;;;;;11.80;2.90;;;;;;;9.37;100.00;101083.38;4992946;28;20061;-65
2022/12/26 09:28:55;;;;;;;3.00;2.22;;;;;;;9.45;100.00;101083.56;4968217;28;20054;-66
2022/12/26 09:31:25;;;;;;;6.28;2.35;;;;;;;9.40;100.00;101093.56;4989368;28;20058;-65
2022/12/26 09:33:52;;;;;;;4.93;2.65;;;;;;;9.44;100.00;101094.16;4986826;28;20057;-65
2022/12/26 09:36:21;;;;;;;7.25;2.38;;;;;;;9.50;100.00;101102.28;4989972;28;20074;-66
2022/12/26 09:38:48;;;;;;;8.40;2.58;;;;;;;9.57;100.00;101099.16;4983588;28;20165;-66
2022/12/26 09:41:52;;;;;;;5.30;2.50;;;;;;;9.68;100.00;101104.28;4986711;28;20448;-66
2022/12/26 09:44:25;;;;;;;7.78;2.38;;;;;;;9.66;100.00;101114.06;4985371;28;20058;-68
2022/12/26 09:47:17;;;;;;;4.97;2.03;;;;;;;9.68;100.00;101107.75;4986923;28;20069;-66
2022/12/26 09:50:26;;;;;;;5.63;2.60;;;;;;;9.66;100.00;101114.91;4988970;28;20058;-66
2022/12/26 09:52:58;;;;;;;5.90;2.25;;;;;;;9.68;100.00;101104.28;4960746;28;20050;-66
2022/12/26 09:55:43;;;;;;;4.65;2.15;;;;;;;9.67;100.00;101119.19;4989284;28;20069;-66
2022/12/26 09:58:33;;;;;;;4.05;2.20;;;;;;;9.66;100.00;101121.91;4976186;28;20055;-65
2022/12/26 10:01:07;;;;;;;4.07;1.95;;;;;;;9.53;100.00;101127.41;4979586;28;20143;-65
2022/12/26 10:03:39;;;;;;;5.88;2.47;;;;;;;9.49;100.00;101123.41;4981213;28;20069;-66
2022/12/26 10:06:12;;;;;;;7.20;2.67;;;;;;;9.50;100.00;101131.09;4984324;28;20054;-65
2022/12/26 10:08:44;;;;;;;5.75;2.10;;;;;;;9.38;100.00;101140.00;4985634;28;20052;-65
2022/12/26 10:11:35;;;;;;;6.72;2.40;;;;;;;9.42;100.00;101151.88;5002872;28;20054;-66
2022/12/26 10:14:30;;;;;;;5.60;2.42;;;;;;;9.37;100.00;101155.84;4976488;28;20050;-67
2022/12/26 10:17:15;;;;;;;5.78;2.85;;;;;;;9.33;100.00;101167.53;4982488;28;20058;-66
2022/12/26 10:20:10;;;;;;;9.00;2.72;;;;;;;9.19;100.00;101206.19;4982986;28;20051;-65
2022/12/26 10:23:00;;;;;;;11.30;3.45;;;;;;;9.18;100.00;101207.13;4988647;28;20074;-67
2022/12/26 10:25:47;;;;;;;7.20;2.20;;;;;;;9.13;100.00;101196.22;4976281;28;20065;-66
2022/12/26 10:28:22;;;;;;;8.43;2.35;;;;;;;9.13;100.00;101211.09;4986481;28;20050;-65
2022/12/26 10:30:51;;;;;;;5.40;2.13;;;;;;;9.12;100.00;101212.88;4982976;28;20112;-65
2022/12/26 10:33:29;;;;;;;7.05;2.72;;;;;;;9.14;100.00;101220.63;4979750;28;20046;-65
2022/12/26 10:35:56;;;;;;;7.32;2.15;;;;;;;9.18;100.00;101203.69;4993137;28;20490;-66
2022/12/26 10:38:36;;;;;;;6.00;2.22;;;;;;;9.17;100.00;101218.56;4982520;28;20057;-65
2022/12/26 10:41:10;;;;;;;6.50;2.00;;;;;;;9.16;100.00;101211.66;4993707;28;20599;-66
2022/12/26 10:43:39;;;;;;;4.38;2.10;;;;;;;9.22;100.00;101221.63;4977866;28;20054;-67
2022/12/26 10:46:06;;;;;;;11.80;2.90;;;;;;;9.12;100.00;101217.31;4988369;28;20105;-65
2022/12/26 10:48:32;;;;;;;9.23;2.20;;;;;;;9.14;100.00;101210.97;4989375;28;20042;-65
2022/12/26 10:50:59;;;;;;;6.95;2.10;;;;;;;9.14;100.00;101225.84;4998859;28;20050;-65
2022/12/26 10:53:25;;;;;;;8.93;2.55;;;;;;;9.13;100.00;101227.63;4988899;28;20062;-66
2022/12/26 10:55:51;;;;;;;12.73;2.92;;;;;;;9.09;100.00;101237.53;4981189;28;20101;-65
2022/12/26 10:58:21;;;;;;;9.88;3.28;;;;;;;9.14;100.00;101241.56;4983964;28;20112;-65
2022/12/26 11:00:48;;;;;;;5.90;2.47;;;;;;;9.12;100.00;101241.69;4976439;28;20050;-65
2022/12/26 11:03:19;;;;;;;10.02;2.53;;;;;;;9.17;100.00;101259.59;4986867;28;20054;-66
2022/12/26 11:05:52;;;;;;;9.95;2.20;;;;;;;9.18;100.00;101262.09;4988810;28;20566;-65
2022/12/26 11:08:46;;;;;;;12.18;2.20;;;;;;;9.09;100.00;101263.72;4990252;28;20061;-66
2022/12/26 11:11:23;;;;;;;7.30;1.45;;;;;;;9.12;100.00;101275.69;4986712;28;20058;-67
2022/12/26 11:13:57;;;;;;;10.13;1.70;;;;;;;9.02;100.00;101275.63;4976526;28;20173;-65
2022/12/26 11:16:32;;;;;;;9.23;1.43;;;;;;;8.97;100.00;101282.19;4996895;28;20131;-65
2022/12/26 11:18:59;;;;;;;11.35;1.65;;;;;;;8.91;100.00;101273.03;4982356;28;20065;-65
2022/12/26 11:21:28;;;;;;;8.95;1.40;;;;;;;8.88;100.00;101281.97;4985688;28;20069;-65
2022/12/26 11:24:06;;;;;;;;;;;;;;;8.85;100.00;101291.84;4993116;28;20128;-66
2022/12/26 11:26:33;;;;;;;13.60;2.03;;;;;;;8.62;100.00;101304.97;4988244;28;19933;-65
2022/12/26 11:29:13;;;;;;;11.63;1.77;;;;;;;8.63;100.00;101311.06;4991290;28;20062;-66
2022/12/26 11:31:52;;;;;;;15.38;2.55;;;;;;;8.58;100.00;101303.56;4989149;28;20046;-64
2022/12/26 11:34:28;;;;;;;;;;;;;;;8.54;100.00;101307.38;4987329;28;20054;-65
2022/12/26 11:36:54;;;;;;;7.65;1.83;;;;;;;8.54;100.00;101301.31;4986764;28;19931;-65
2022/12/26 11:39:25;;;;;;;13.23;1.75;;;;;;;8.50;100.00;101317.22;4973187;28;20058;-65
2022/12/26 11:41:52;;;;;;;13.88;1.75;;;;;;;8.50;100.00;101327.69;4965752;28;20046;-65
2022/12/26 11:44:24;;;;;;;10.38;2.08;;;;;;;8.63;100.00;101321.50;4985176;28;20081;-64
2022/12/26 11:46:53;;;;;;;15.95;1.95;;;;;;;8.57;100.00;101328.06;4982734;28;20422;-66
2022/12/26 11:49:35;;;;;;;11.52;1.90;;;;;;;8.62;100.00;101325.06;4983093;28;20137;-66
2022/12/26 11:52:36;;;;;;;6.75;1.65;;;;;;;8.60;100.00;101335.63;4981340;28;20054;-65
2022/12/26 11:55:20;;;;;;;10.73;1.70;;;;;;;8.56;100.00;101331.59;4963092;28;20492;-66
2022/12/26 11:58:05;;;;;;;14.15;2.50;;;;;;;8.44;100.00;101343.84;4982720;28;20058;-65
2022/12/26 12:00:40;;;;;;;8.52;2.03;;;;;;;8.40;100.00;101342.41;4977058;28;20046;-64
2022/12/26 12:03:16;;;;;;;7.72;1.48;;;;;;;8.31;100.00;101341.34;4985144;28;20065;-65
2022/12/26 12:06:03;;;;;;;10.10;1.67;;;;;;;8.23;100.00;101343.72;4986709;28;20141;-65
2022/12/26 12:08:50;;;;;;;7.67;1.50;;;;;;;8.29;100.00;101343.25;4979994;28;20475;-65
2022/12/26 12:11:47;;;;;;;6.32;1.05;;;;;;;8.25;100.00;101354.03;4978340;28;20054;-64
2022/12/26 12:14:27;;;;;;;6.82;1.20;;;;;;;8.18;100.00;101358.94;4981016;28;20116;-64
2022/12/26 12:17:05;;;;;;;9.80;1.48;;;;;;;8.20;100.00;101357.03;4978892;28;20058;-64
2022/12/26 12:19:53;;;;;;;9.00;1.40;;;;;;;8.24;100.00;101355.84;4985979;28;20054;-65
2022/12/26 12:22:29;;;;;;;4.97;1.15;;;;;;;8.19;100.00;101344.88;4966315;28;20480;-65
2022/12/26 12:25:04;;;;;;;9.23;1.85;;;;;;;8.15;100.00;101353.09;4984742;28;20058;-64
2022/12/26 12:27:38;;;;;;;6.90;1.30;;;;;;;8.07;100.00;101353.69;4976163;28;20156;-65
2022/12/26 12:30:09;;;;;;;5.78;1.10;;;;;;;8.12;100.00;101364.63;4982111;28;20406;-64
2022/12/26 12:33:03;;;;;;;5.25;1.40;;;;;;;8.12;100.00;101360.22;4986934;28;20202;-66
2022/12/26 12:35:59;;;;;;;3.95;0.75;;;;;;;8.10;100.00;101366.53;4968888;28;20400;-65
2022/12/26 12:38:31;;;;;;;4.30;1.17;;;;;;;8.03;100.00;101367.94;4972349;28;20566;-65
2022/12/26 12:41:00;;;;;;;8.15;1.10;;;;;;;7.92;100.00;101371.38;4975976;28;20070;-65
2022/12/26 12:43:41;;;;;;;3.53;1.20;;;;;;;8.01;100.00;101382.88;4988661;28;20060;-65
2022/12/26 12:46:29;;;;;;;6.28;1.38;;;;;;;7.99;100.00;101384.78;4978244;28;20052;-64
2022/12/26 12:49:03;;;;;;;;;;;;;;;7.97;100.00;101382.28;4981933;28;20068;-65
2022/12/26 12:52:00;;;;;;;4.93;1.13;;;;;;;7.91;100.00;101383.56;4977679;28;19925;-64
2022/12/26 12:54:33;;;;;;;7.60;1.40;;;;;;;7.92;100.00;101382.63;4987059;28;20066;-65
2022/12/26 12:57:21;;;;;;;4.15;1.13;;;;;;;7.93;100.00;101384.28;4985552;28;20791;-67
2022/12/26 13:00:02;;;;;;;7.38;1.30;;;;;;;7.93;100.00;101399.13;4988780;28;20054;-66
2022/12/26 13:02:37;;;;;;;10.57;2.13;;;;;;;7.93;100.00;101396.53;4986117;28;20470;-65
2022/12/26 13:05:25;;;;;;;9.95;1.98;;;;;;;7.93;100.00;101404.34;4980472;28;20117;-65
2022/12/26 13:07:59;;;;;;;7.15;1.52;;;;;;;7.91;100.00;101403.66;4985182;28;20058;-65
2022/12/26 13:10:47;;;;;;;7.28;1.30;;;;;;;7.88;100.00;101406.50;4966461;28;20132;-65
2022/12/26 13:13:25;;;;;;;8.55;1.42;;;;;;;7.87;100.00;101410.03;4980615;28;20491;-64
2022/12/26 13:15:58;;;;;;;5.07;1.30;;;;;;;7.86;100.00;101414.44;4969119;28;20528;-64
2022/12/26 13:18:34;;;;;;;8.93;1.88;;;;;;;7.90;100.00;101415.88;4972119;28;20049;-64
2022/12/26 13:21:07;;;;;;;6.55;2.15;;;;;;;7.85;100.00;101411.94;4971936;28;20050;-64
2022/12/26 13:26:42;;;;;;;8.07;1.30;;;;;;;7.73;100.00;101417.13;4984008;28;20058;-64
2022/12/26 13:29:27;;;;;;;4.35;1.23;;;;;;;7.79;100.00;101423.69;4986773;28;20057;-66
2022/12/26 13:31:54;;;;;;;8.93;1.50;;;;;;;7.73;100.00;101417.13;4976927;28;20053;-66
2022/12/26 13:34:20;;;;;;;8.48;1.38;;;;;;;7.68;100.00;101424.47;4983891;28;20129;-64
2022/12/26 13:36:49;;;;;;;9.02;1.40;;;;;;;7.67;100.00;101421.97;4968239;28;20056;-66
2022/12/26 13:39:22;;;;;;;10.48;1.50;;;;;;;7.69;100.00;101426.13;4980755;28;20076;-64
2022/12/26 13:44:38;;;;;;;5.18;1.25;;;;;;;7.50;100.00;101431.03;4968642;28;20050;-66
2022/12/26 13:47:24;;;;;;;4.68;1.00;;;;;;;7.41;100.00;101431.69;4979141;28;20096;-64
2022/12/26 13:49:51;;;;;;;6.57;1.30;;;;;;;7.40;100.00;101438.69;4978892;28;20487;-66
2022/12/26 13:52:21;;;;;;;14.75;2.45;;;;;;;7.45;100.00;101451.44;4984927;28;20058;-66
2022/12/26 13:54:47;;;;;;;5.63;1.48;;;;;;;7.37;100.00;101451.97;4984796;28;20491;-65